Queen Isabella — A8IE2 — position and weather

sailwx.info

Track history (hours):
 
Tides and Currents Weather Stations Pressure Air Temp Water Temp Dewpoint Dewpoint Depression Visibility Wind Speed Wind Dir Waves Ship Positions

Queen Isabella

Last reported at 2015-Sep-04 20:07 UTC. Time now 2015-Sep-04 23:09 UTC.
Position N 39°17' W 009°57'.

Length 131 m; draft 7.1 m.

Type: Ship. MMSI: 636090959.

Date/timePositionNaut miles runAvg speedWind from/ knotsBaromVisibWave heightAir tempDewpointWater temp
2015-Sep-04 20:07N 39°17' W 009°57'712.6
2015-Sep-04 19:33N 39°10' W 009°57'1312.5
2015-Sep-04 18:33N 38°57' W 009°57'1212.1
2015-Sep-04 17:33N 38°45' W 009°56'1211.8
2015-Sep-04 16:33N 38°34' W 009°54'1212.0
2015-Sep-04 15:33N 38°22' W 009°50'1212.4
2015-Sep-04 14:32N 38°10' W 009°47'10211.4
2015-Sep-04 05:32N 36°41' W 008°43'2014.3
2015-Sep-04 04:08N 36°45' W 008°19'914.7
2015-Sep-04 03:32N 36°46' W 008°08'  
2015-Sep-01 16:12N 36°21' W 002°49'1412.4
2015-Sep-01 15:05N 36°23' W 002°31'1012.4
2015-Sep-01 14:18N 36°25' W 002°20'3512.6
2015-Sep-01 11:33N 36°45' W 001°44'5313.4
2015-Sep-01 07:33N 37°20' W 000°54'1413.9
2015-Sep-01 06:33N 37°29' W 000°40'1413.8
2015-Sep-01 05:33N 37°39' W 000°29'12011.4
2015-Aug-31 19:05N 39°38' W 000°12'0 0.0
2015-Aug-30 05:23N 39°38' W 000°13'3 1.6
2015-Aug-30 03:33N 39°35' W 000°11'0 0.0
2015-Aug-30 02:33N 39°35' W 000°11'0 0.0
2015-Aug-30 01:33N 39°35' W 000°11'0 0.0
2015-Aug-30 00:27N 39°35' W 000°11'0 0.0
2015-Aug-29 22:27N 39°36' W 000°11'0 0.0
2015-Aug-29 21:33N 39°36' W 000°11'0 0.0
2015-Aug-29 20:15N 39°36' W 000°11'0 0.0
2015-Aug-29 12:27N 39°36' W 000°11'0 0.0
2015-Aug-29 05:27N 39°36' W 000°11'0 0.0
2015-Aug-29 00:18N 39°35' W 000°11'0 0.0
2015-Aug-28 22:18N 39°36' W 000°11'0 0.0
2015-Aug-28 21:21N 39°36' W 000°11'0 0.0
2015-Aug-28 12:09N 39°36' W 000°11'0 0.0
2015-Aug-28 06:18N 39°35' W 000°11'0 0.0
2015-Aug-28 05:33N 39°35' W 000°11'48 5.2
2015-Aug-27 20:18N 39°30' E 000°51'3311.9
2015-Aug-27 17:33N 39°24' E 001°33'1211.9
2015-Aug-27 16:33N 39°19' E 001°47'1211.8
2015-Aug-27 15:33N 39°14' E 002°01'1312.1
2015-Aug-27 14:27N 39°08' E 002°16'1112.0
2015-Aug-27 13:33N 39°03' E 002°29'1212.2
2015-Aug-27 12:33N 38°58' E 002°43'1414.3
2015-Aug-27 11:33N 38°52' E 002°59'1212.3
2015-Aug-27 10:33N 38°46' E 003°13'1212.3
2015-Aug-27 09:33N 38°41' E 003°28'1212.3
2015-Aug-27 08:33N 38°36' E 003°42'1212.2
2015-Aug-27 07:33N 38°30' E 003°56'1212.2
2015-Aug-27 06:33N 38°25' E 004°10'1412.1
2015-Aug-27 05:26N 38°19' E 004°26'1112.1
2015-Aug-27 04:33N 38°15' E 004°38'1212.3
2015-Aug-27 03:33N 38°09' E 004°52'1512.3
2015-Aug-27 02:18N 38°03' E 005°10'4812.5
2015-Aug-26 22:27N 37°42' E 006°05'1512.3
2015-Aug-26 21:16N 37°35' E 006°21'  
Track history (hours):
 
Tides and Currents Weather Stations Pressure Air Temp Water Temp Dewpoint Dewpoint Depression Visibility Wind Speed Wind Dir Waves Ship Positions

Queen Isabella

Last reported at 2015-Sep-04 20:07 UTC. Time now 2015-Sep-04 23:09 UTC.
Position N 39°17' W 009°57'.

Length 131 m; draft 7.1 m.

Type: Ship. MMSI: 636090959.

Date/timePositionNaut miles runAvg speedWind from/ knotsBaromVisibWave heightAir tempDewpointWater temp
2015-Sep-04 20:07N 39°17' W 009°57'712.6
2015-Sep-04 19:33N 39°10' W 009°57'1312.5
2015-Sep-04 18:33N 38°57' W 009°57'1212.1
2015-Sep-04 17:33N 38°45' W 009°56'1211.8
2015-Sep-04 16:33N 38°34' W 009°54'1212.0
2015-Sep-04 15:33N 38°22' W 009°50'1212.4
2015-Sep-04 14:32N 38°10' W 009°47'10211.4
2015-Sep-04 05:32N 36°41' W 008°43'2014.3
2015-Sep-04 04:08N 36°45' W 008°19'914.7
2015-Sep-04 03:32N 36°46' W 008°08'  
2015-Sep-01 16:12N 36°21' W 002°49'1412.4
2015-Sep-01 15:05N 36°23' W 002°31'1012.4
2015-Sep-01 14:18N 36°25' W 002°20'3512.6
2015-Sep-01 11:33N 36°45' W 001°44'5313.4
2015-Sep-01 07:33N 37°20' W 000°54'1413.9
2015-Sep-01 06:33N 37°29' W 000°40'1413.8
2015-Sep-01 05:33N 37°39' W 000°29'12011.4
2015-Aug-31 19:05N 39°38' W 000°12'0 0.0
2015-Aug-30 05:23N 39°38' W 000°13'3 1.6
2015-Aug-30 03:33N 39°35' W 000°11'0 0.0
2015-Aug-30 02:33N 39°35' W 000°11'0 0.0
2015-Aug-30 01:33N 39°35' W 000°11'0 0.0
2015-Aug-30 00:27N 39°35' W 000°11'0 0.0
2015-Aug-29 22:27N 39°36' W 000°11'0 0.0
2015-Aug-29 21:33N 39°36' W 000°11'0 0.0
2015-Aug-29 20:15N 39°36' W 000°11'0 0.0
2015-Aug-29 12:27N 39°36' W 000°11'0 0.0
2015-Aug-29 05:27N 39°36' W 000°11'0 0.0
2015-Aug-29 00:18N 39°35' W 000°11'0 0.0
2015-Aug-28 22:18N 39°36' W 000°11'0 0.0
2015-Aug-28 21:21N 39°36' W 000°11'0 0.0
2015-Aug-28 12:09N 39°36' W 000°11'0 0.0
2015-Aug-28 06:18N 39°35' W 000°11'0 0.0
2015-Aug-28 05:33N 39°35' W 000°11'48 5.2
2015-Aug-27 20:18N 39°30' E 000°51'3311.9
2015-Aug-27 17:33N 39°24' E 001°33'1211.9
2015-Aug-27 16:33N 39°19' E 001°47'1211.8
2015-Aug-27 15:33N 39°14' E 002°01'1312.1
2015-Aug-27 14:27N 39°08' E 002°16'1112.0
2015-Aug-27 13:33N 39°03' E 002°29'1212.2
2015-Aug-27 12:33N 38°58' E 002°43'1414.3
2015-Aug-27 11:33N 38°52' E 002°59'1212.3
2015-Aug-27 10:33N 38°46' E 003°13'1212.3
2015-Aug-27 09:33N 38°41' E 003°28'1212.3
2015-Aug-27 08:33N 38°36' E 003°42'1212.2
2015-Aug-27 07:33N 38°30' E 003°56'1212.2
2015-Aug-27 06:33N 38°25' E 004°10'1412.1
2015-Aug-27 05:26N 38°19' E 004°26'1112.1
2015-Aug-27 04:33N 38°15' E 004°38'1212.3
2015-Aug-27 03:33N 38°09' E 004°52'1512.3
2015-Aug-27 02:18N 38°03' E 005°10'4812.5
2015-Aug-26 22:27N 37°42' E 006°05'1512.3
2015-Aug-26 21:16N 37°35' E 006°21'  

Dump ship's entire track history